Terminal Aerodrome Forecast
Issued by NWS Buffalo, NY

Home | Current Version | Previous Version | Text Only | Print | Product List | Glossary On
Versions: 1 2 3 4 5 6 7 8 9 10 11 12 13 14 15 16 17 18 19 20 21 22 23 24 25
000
FTUS41 KBUF 301132
TAFART
TAF
KART 301132Z 3012/3112 00000KT 3SM BR BKN150
     FM301300 23004KT P6SM BKN070
     FM301900 24007KT P6SM SCT050
     FM310200 19004KT P6SM FEW060
     FM311100 23008KT P6SM SCT060=

USA.gov is the U.S. government's official web portal to all federal, state and local government web resources and services.